sensor_id;sensor_type;location;lat;lon;timestamp;P1;durP1;ratioP1;P2;durP2;ratioP2
62121;SDS011;48108;47.532;19.084;2024-02-14T04:53:08;30.27;;;27.98;;
62121;SDS011;48108;47.532;19.084;2024-02-14T04:56:11;28.80;;;26.67;;
62121;SDS011;48108;47.532;19.084;2024-02-14T04:59:14;28.87;;;26.67;;
62121;SDS011;48108;47.532;19.084;2024-02-14T05:02:17;26.20;;;24.10;;
62121;SDS011;48108;47.532;19.084;2024-02-14T05:05:20;29.63;;;27.23;;
62121;SDS011;48108;47.532;19.084;2024-02-14T05:08:23;28.87;;;26.67;;
62121;SDS011;48108;47.532;19.084;2024-02-14T05:11:26;30.73;;;28.45;;
62121;SDS011;48108;47.532;19.084;2024-02-14T05:14:29;33.30;;;30.77;;
62121;SDS011;48108;47.532;19.084;2024-02-14T05:17:34;35.60;;;32.60;;
62121;SDS011;48108;47.532;19.084;2024-02-14T05:20:38;27.70;;;25.60;;
62121;SDS011;48108;47.532;19.084;2024-02-14T05:23:40;30.35;;;28.12;;
62121;SDS011;48108;47.532;19.084;2024-02-14T05:26:46;31.98;;;29.48;;
62121;SDS011;48108;47.532;19.084;2024-02-14T05:29:49;30.60;;;28.15;;
62121;SDS011;48108;47.532;19.084;2024-02-14T05:32:52;33.35;;;30.62;;
62121;SDS011;48108;47.532;19.084;2024-02-14T05:35:55;30.02;;;27.50;;
62121;SDS011;48108;47.532;19.084;2024-02-14T05:38:59;29.77;;;27.23;;
62121;SDS011;48108;47.532;19.084;2024-02-14T05:42:01;31.02;;;28.45;;
62121;SDS011;48108;47.532;19.084;2024-02-14T05:45:04;28.83;;;26.23;;
62121;SDS011;48108;47.532;19.084;2024-02-14T05:48:08;31.20;;;28.62;;
62121;SDS011;48108;47.532;19.084;2024-02-14T05:51:11;32.67;;;30.02;;
62121;SDS011;48108;47.532;19.084;2024-02-14T05:54:14;29.37;;;26.77;;
62121;SDS011;48108;47.532;19.084;2024-02-14T05:57:17;29.87;;;27.25;;
62121;SDS011;48108;47.532;19.084;2024-02-14T06:00:20;29.95;;;27.52;;
62121;SDS011;48108;47.532;19.084;2024-02-14T06:03:28;32.78;;;29.95;;
62121;SDS011;48108;47.532;19.084;2024-02-14T06:06:31;33.33;;;30.58;;
62121;SDS011;48108;47.532;19.084;2024-02-14T06:09:35;31.42;;;28.77;;
62121;SDS011;48108;47.532;19.084;2024-02-14T06:12:38;37.45;;;33.85;;
62121;SDS011;48108;47.532;19.084;2024-02-14T06:15:43;37.33;;;33.70;;
62121;SDS011;48108;47.532;19.084;2024-02-14T06:18:46;37.58;;;34.33;;
62121;SDS011;48108;47.532;19.084;2024-02-14T06:21:49;38.53;;;34.83;;
62121;SDS011;48108;47.532;19.084;2024-02-14T06:24:52;40.80;;;36.92;;
62121;SDS011;48108;47.532;19.084;2024-02-14T06:27:55;34.40;;;31.60;;
62121;SDS011;48108;47.532;19.084;2024-02-14T06:30:57;39.58;;;36.33;;
62121;SDS011;48108;47.532;19.084;2024-02-14T06:34:01;35.83;;;32.38;;
62121;SDS011;48108;47.532;19.084;2024-02-14T06:37:04;34.67;;;31.52;;
62121;SDS011;48108;47.532;19.084;2024-02-14T06:40:09;35.13;;;31.92;;
62121;SDS011;48108;47.532;19.084;2024-02-14T06:43:14;31.60;;;28.70;;
62121;SDS011;48108;47.532;19.084;2024-02-14T06:46:17;31.23;;;28.48;;
62121;SDS011;48108;47.532;19.084;2024-02-14T06:49:20;28.20;;;25.20;;
62121;SDS011;48108;47.532;19.084;2024-02-14T06:52:23;26.87;;;20.12;;
62121;SDS011;48108;47.532;19.084;2024-02-14T06:55:27;30.67;;;25.92;;
62121;SDS011;48108;47.532;19.084;2024-02-14T06:58:30;23.20;;;20.50;;
62121;SDS011;48108;47.532;19.084;2024-02-14T07:01:33;20.15;;;18.10;;
62121;SDS011;48108;47.532;19.084;2024-02-14T07:04:37;18.73;;;16.58;;
62121;SDS011;48108;47.532;19.084;2024-02-14T07:07:40;29.33;;;16.08;;
62121;SDS011;48108;47.532;19.084;2024-02-14T07:10:44;17.75;;;12.65;;
62121;SDS011;48108;47.532;19.084;2024-02-14T07:13:46;19.58;;;11.85;;
62121;SDS011;48108;47.532;19.084;2024-02-14T07:16:49;19.27;;;11.98;;
62121;SDS011;48108;47.532;19.084;2024-02-14T07:19:53;19.15;;;10.43;;
62121;SDS011;48108;47.532;19.084;2024-02-14T07:22:56;19.75;;;10.32;;
62121;SDS011;48108;47.532;19.084;2024-02-14T07:25:59;13.77;;;7.78;;
62121;SDS011;48108;47.532;19.084;2024-02-14T07:29:06;11.02;;;6.35;;
62121;SDS011;48108;47.532;19.084;2024-02-14T07:32:08;10.57;;;6.30;;
62121;SDS011;48108;47.532;19.084;2024-02-14T07:35:11;8.48;;;6.53;;
62121;SDS011;48108;47.532;19.084;2024-02-14T07:38:15;19.58;;;7.12;;
62121;SDS011;48108;47.532;19.084;2024-02-14T07:41:21;12.30;;;6.68;;
62121;SDS011;48108;47.532;19.084;2024-02-14T07:44:24;15.27;;;7.10;;
62121;SDS011;48108;47.532;19.084;2024-02-14T07:47:27;12.23;;;6.40;;
62121;SDS011;48108;47.532;19.084;2024-02-14T07:50:31;14.45;;;6.03;;
62121;SDS011;48108;47.532;19.084;2024-02-14T07:53:34;10.00;;;5.95;;
62121;SDS011;48108;47.532;19.084;2024-02-14T07:56:38;14.13;;;7.45;;
62121;SDS011;48108;47.532;19.084;2024-02-14T07:59:41;14.07;;;6.85;;
62121;SDS011;48108;47.532;19.084;2024-02-14T08:02:44;8.98;;;6.45;;
62121;SDS011;48108;47.532;19.084;2024-02-14T08:05:47;14.68;;;7.62;;
62121;SDS011;48108;47.532;19.084;2024-02-14T08:08:50;10.15;;;6.50;;
62121;SDS011;48108;47.532;19.084;2024-02-14T08:11:56;23.75;;;6.28;;
62121;SDS011;48108;47.532;19.084;2024-02-14T08:14:59;8.95;;;5.93;;
62121;SDS011;48108;47.532;19.084;2024-02-14T08:18:07;9.43;;;6.18;;
62121;SDS011;48108;47.532;19.084;2024-02-14T08:21:11;9.80;;;6.15;;
62121;SDS011;48108;47.532;19.084;2024-02-14T08:24:15;11.73;;;6.82;;
62121;SDS011;48108;47.532;19.084;2024-02-14T08:27:17;11.52;;;6.50;;
62121;SDS011;48108;47.532;19.084;2024-02-14T08:30:24;11.70;;;5.47;;
62121;SDS011;48108;47.532;19.084;2024-02-14T08:33:26;10.25;;;5.57;;
62121;SDS011;48108;47.532;19.084;2024-02-14T08:36:30;8.98;;;5.70;;
62121;SDS011;48108;47.532;19.084;2024-02-14T08:39:33;7.90;;;5.20;;
62121;SDS011;48108;47.532;19.084;2024-02-14T08:42:36;7.82;;;4.87;;
62121;SDS011;48108;47.532;19.084;2024-02-14T08:45:39;6.97;;;4.90;;
62121;SDS011;48108;47.532;19.084;2024-02-14T08:48:42;10.50;;;5.35;;
62121;SDS011;48108;47.532;19.084;2024-02-14T08:51:51;8.43;;;5.25;;
62121;SDS011;48108;47.532;19.084;2024-02-14T08:54:54;9.65;;;4.95;;
62121;SDS011;48108;47.532;19.084;2024-02-14T08:57:56;8.40;;;4.45;;
62121;SDS011;48108;47.532;19.084;2024-02-14T09:01:00;6.70;;;3.90;;
62121;SDS011;48108;47.532;19.084;2024-02-14T09:04:15;5.72;;;3.90;;
62121;SDS011;48108;47.532;19.084;2024-02-14T09:07:18;7.80;;;4.30;;
62121;SDS011;48108;47.532;19.084;2024-02-14T09:10:21;7.75;;;4.80;;
62121;SDS011;48108;47.532;19.084;2024-02-14T09:13:24;8.85;;;5.65;;
62121;SDS011;48108;47.532;19.084;2024-02-14T09:16:27;7.20;;;4.72;;
62121;SDS011;48108;47.532;19.084;2024-02-14T09:19:30;6.95;;;4.90;;
62121;SDS011;48108;47.532;19.084;2024-02-14T09:22:34;7.22;;;5.18;;
62121;SDS011;48108;47.532;19.084;2024-02-14T09:25:39;9.43;;;4.68;;
62121;SDS011;48108;47.532;19.084;2024-02-14T09:28:42;7.90;;;5.00;;
62121;SDS011;48108;47.532;19.084;2024-02-14T09:31:45;5.75;;;3.70;;
62121;SDS011;48108;47.532;19.084;2024-02-14T09:34:50;4.90;;;2.92;;
62121;SDS011;48108;47.532;19.084;2024-02-14T09:37:53;9.52;;;3.90;;
62121;SDS011;48108;47.532;19.084;2024-02-14T09:41:02;5.30;;;3.47;;
62121;SDS011;48108;47.532;19.084;2024-02-14T09:44:18;6.78;;;3.03;;
62121;SDS011;48108;47.532;19.084;2024-02-14T09:47:21;5.53;;;4.22;;
62121;SDS011;48108;47.532;19.084;2024-02-14T09:50:24;4.85;;;3.85;;
62121;SDS011;48108;47.532;19.084;2024-02-14T09:53:30;5.25;;;3.53;;
62121;SDS011;48108;47.532;19.084;2024-02-14T09:56:35;5.28;;;3.92;;
62121;SDS011;48108;47.532;19.084;2024-02-14T09:59:38;4.87;;;3.53;;
62121;SDS011;48108;47.532;19.084;2024-02-14T10:02:42;5.30;;;3.92;;
62121;SDS011;48108;47.532;19.084;2024-02-14T10:05:45;6.32;;;3.25;;
62121;SDS011;48108;47.532;19.084;2024-02-14T10:08:48;3.22;;;2.83;;
62121;SDS011;48108;47.532;19.084;2024-02-14T10:12:05;5.30;;;3.53;;
62121;SDS011;48108;47.532;19.084;2024-02-14T10:15:08;3.58;;;2.37;;
62121;SDS011;48108;47.532;19.084;2024-02-14T10:18:12;3.08;;;2.75;;
62121;SDS011;48108;47.532;19.084;2024-02-14T10:21:17;4.43;;;3.12;;
62121;SDS011;48108;47.532;19.084;2024-02-14T10:24:21;8.55;;;3.45;;
62121;SDS011;48108;47.532;19.084;2024-02-14T10:27:26;3.40;;;2.95;;
62121;SDS011;48108;47.532;19.084;2024-02-14T10:30:29;4.15;;;3.15;;
62121;SDS011;48108;47.532;19.084;2024-02-14T10:33:31;3.35;;;2.62;;
62121;SDS011;48108;47.532;19.084;2024-02-14T10:36:34;4.45;;;2.80;;
62121;SDS011;48108;47.532;19.084;2024-02-14T11:10:55;7.55;;;4.50;;
62121;SDS011;48108;47.532;19.084;2024-02-14T11:13:59;5.72;;;4.10;;
62121;SDS011;48108;47.532;19.084;2024-02-14T11:17:02;6.40;;;3.92;;
62121;SDS011;48108;47.532;19.084;2024-02-14T11:20:16;5.62;;;4.12;;
62121;SDS011;48108;47.532;19.084;2024-02-14T11:23:24;7.62;;;4.20;;
62121;SDS011;48108;47.532;19.084;2024-02-14T11:26:36;7.00;;;3.90;;
62121;SDS011;48108;47.532;19.084;2024-02-14T11:29:50;6.43;;;4.35;;
62121;SDS011;48108;47.532;19.084;2024-02-14T11:32:54;7.72;;;4.40;;
62121;SDS011;48108;47.532;19.084;2024-02-14T11:35:57;5.37;;;3.60;;
62121;SDS011;48108;47.532;19.084;2024-02-14T11:39:04;6.95;;;4.25;;
62121;SDS011;48108;47.532;19.084;2024-02-14T11:42:07;8.27;;;4.28;;
62121;SDS011;48108;47.532;19.084;2024-02-14T11:45:13;6.90;;;3.97;;
62121;SDS011;48108;47.532;19.084;2024-02-14T11:48:16;6.55;;;4.43;;
62121;SDS011;48108;47.532;19.084;2024-02-14T11:51:20;3.62;;;3.28;;
62121;SDS011;48108;47.532;19.084;2024-02-14T11:54:23;7.57;;;3.78;;
62121;SDS011;48108;47.532;19.084;2024-02-14T11:57:27;5.28;;;3.58;;
62121;SDS011;48108;47.532;19.084;2024-02-14T12:00:30;4.32;;;3.45;;
62121;SDS011;48108;47.532;19.084;2024-02-14T12:03:33;8.40;;;3.95;;
62121;SDS011;48108;47.532;19.084;2024-02-14T12:06:41;4.72;;;3.70;;
62121;SDS011;48108;47.532;19.084;2024-02-14T12:09:44;4.40;;;3.62;;
62121;SDS011;48108;47.532;19.084;2024-02-14T12:12:47;4.07;;;3.67;;
62121;SDS011;48108;47.532;19.084;2024-02-14T12:15:51;6.78;;;4.60;;
62121;SDS011;48108;47.532;19.084;2024-02-14T12:19:08;5.07;;;3.42;;
62121;SDS011;48108;47.532;19.084;2024-02-14T12:22:19;4.15;;;3.72;;
62121;SDS011;48108;47.532;19.084;2024-02-14T12:25:23;3.70;;;3.20;;
62121;SDS011;48108;47.532;19.084;2024-02-14T12:28:28;4.80;;;3.80;;
62121;SDS011;48108;47.532;19.084;2024-02-14T12:31:33;4.78;;;3.85;;
62121;SDS011;48108;47.532;19.084;2024-02-14T12:34:37;5.03;;;3.90;;
62121;SDS011;48108;47.532;19.084;2024-02-14T12:37:40;3.62;;;3.33;;
62121;SDS011;48108;47.532;19.084;2024-02-14T12:40:43;4.43;;;4.07;;
62121;SDS011;48108;47.532;19.084;2024-02-14T12:43:46;4.20;;;3.80;;
62121;SDS011;48108;47.532;19.084;2024-02-14T12:46:50;5.32;;;4.28;;
62121;SDS011;48108;47.532;19.084;2024-02-14T12:49:53;4.95;;;4.40;;
62121;SDS011;48108;47.532;19.084;2024-02-14T12:52:56;5.00;;;3.72;;
62121;SDS011;48108;47.532;19.084;2024-02-14T12:55:59;4.97;;;4.57;;
62121;SDS011;48108;47.532;19.084;2024-02-14T12:59:03;5.12;;;4.70;;
62121;SDS011;48108;47.532;19.084;2024-02-14T13:02:06;5.47;;;4.97;;
62121;SDS011;48108;47.532;19.084;2024-02-14T13:05:09;4.93;;;4.53;;
62121;SDS011;48108;47.532;19.084;2024-02-14T13:08:12;5.03;;;4.53;;
62121;SDS011;48108;47.532;19.084;2024-02-14T13:11:15;5.30;;;4.07;;
62121;SDS011;48108;47.532;19.084;2024-02-14T13:14:21;5.30;;;4.80;;
62121;SDS011;48108;47.532;19.084;2024-02-14T13:17:24;7.32;;;5.00;;
62121;SDS011;48108;47.532;19.084;2024-02-14T13:20:28;7.32;;;5.47;;
62121;SDS011;48108;47.532;19.084;2024-02-14T13:23:31;7.30;;;4.95;;
62121;SDS011;48108;47.532;19.084;2024-02-14T13:26:34;7.32;;;4.60;;
62121;SDS011;48108;47.532;19.084;2024-02-14T13:29:37;6.40;;;5.25;;
62121;SDS011;48108;47.532;19.084;2024-02-14T13:32:40;6.22;;;5.62;;
62121;SDS011;48108;47.532;19.084;2024-02-14T13:35:43;5.97;;;5.37;;
62121;SDS011;48108;47.532;19.084;2024-02-14T13:38:46;7.25;;;4.90;;
62121;SDS011;48108;47.532;19.084;2024-02-14T13:41:49;6.85;;;5.37;;
62121;SDS011;48108;47.532;19.084;2024-02-14T13:44:52;7.93;;;4.95;;
62121;SDS011;48108;47.532;19.084;2024-02-14T13:48:02;9.15;;;5.95;;
62121;SDS011;48108;47.532;19.084;2024-02-14T13:51:10;9.80;;;5.93;;
62121;SDS011;48108;47.532;19.084;2024-02-14T13:54:13;10.38;;;5.55;;
62121;SDS011;48108;47.532;19.084;2024-02-14T13:57:17;9.50;;;5.82;;
62121;SDS011;48108;47.532;19.084;2024-02-14T14:00:22;8.23;;;5.80;;
62121;SDS011;48108;47.532;19.084;2024-02-14T14:03:25;8.10;;;6.68;;
62121;SDS011;48108;47.532;19.084;2024-02-14T14:06:29;10.32;;;6.22;;
62121;SDS011;48108;47.532;19.084;2024-02-14T14:09:33;8.75;;;6.10;;
62121;SDS011;48108;47.532;19.084;2024-02-14T14:12:36;9.00;;;5.87;;
62121;SDS011;48108;47.532;19.084;2024-02-14T14:15:39;12.63;;;7.43;;
62121;SDS011;48108;47.532;19.084;2024-02-14T14:18:43;7.37;;;5.78;;
62121;SDS011;48108;47.532;19.084;2024-02-14T14:21:46;9.90;;;5.85;;
62121;SDS011;48108;47.532;19.084;2024-02-14T14:24:49;7.32;;;5.57;;
62121;SDS011;48108;47.532;19.084;2024-02-14T14:27:54;7.18;;;5.20;;
62121;SDS011;48108;47.532;19.084;2024-02-14T14:30:57;10.05;;;5.07;;
62121;SDS011;48108;47.532;19.084;2024-02-14T14:34:02;8.23;;;6.03;;
62121;SDS011;48108;47.532;19.084;2024-02-14T14:37:05;9.93;;;5.90;;
62121;SDS011;48108;47.532;19.084;2024-02-14T14:40:09;10.73;;;5.87;;
62121;SDS011;48108;47.532;19.084;2024-02-14T14:43:13;10.82;;;5.87;;
62121;SDS011;48108;47.532;19.084;2024-02-14T14:46:17;7.10;;;5.32;;
62121;SDS011;48108;47.532;19.084;2024-02-14T14:49:22;11.88;;;5.68;;
62121;SDS011;48108;47.532;19.084;2024-02-14T14:52:25;5.78;;;5.07;;
62121;SDS011;48108;47.532;19.084;2024-02-14T14:59:00;6.65;;;5.65;;
62121;SDS011;48108;47.532;19.084;2024-02-14T15:02:05;10.18;;;5.10;;
62121;SDS011;48108;47.532;19.084;2024-02-14T15:05:09;10.90;;;5.10;;
62121;SDS011;48108;47.532;19.084;2024-02-14T15:08:16;7.57;;;5.28;;
62121;SDS011;48108;47.532;19.084;2024-02-14T15:11:20;9.07;;;5.00;;
62121;SDS011;48108;47.532;19.084;2024-02-14T15:14:24;8.27;;;5.40;;
62121;SDS011;48108;47.532;19.084;2024-02-14T15:17:27;8.25;;;4.78;;
62121;SDS011;48108;47.532;19.084;2024-02-14T15:20:31;5.68;;;4.37;;
62121;SDS011;48108;47.532;19.084;2024-02-14T15:23:34;7.75;;;5.47;;
62121;SDS011;48108;47.532;19.084;2024-02-14T15:26:38;6.62;;;5.28;;
62121;SDS011;48108;47.532;19.084;2024-02-14T15:29:56;9.13;;;5.87;;
62121;SDS011;48108;47.532;19.084;2024-02-14T15:33:17;7.43;;;5.05;;
62121;SDS011;48108;47.532;19.084;2024-02-14T15:36:26;9.18;;;5.12;;
62121;SDS011;48108;47.532;19.084;2024-02-14T15:39:29;8.15;;;5.35;;
62121;SDS011;48108;47.532;19.084;2024-02-14T15:42:32;9.88;;;5.12;;
62121;SDS011;48108;47.532;19.084;2024-02-14T15:45:34;9.60;;;5.32;;
62121;SDS011;48108;47.532;19.084;2024-02-14T15:48:39;12.23;;;6.45;;
62121;SDS011;48108;47.532;19.084;2024-02-14T15:51:43;9.40;;;5.43;;
62121;SDS011;48108;47.532;19.084;2024-02-14T15:54:47;7.90;;;5.40;;
62121;SDS011;48108;47.532;19.084;2024-02-14T15:57:50;9.02;;;5.18;;
62121;SDS011;48108;47.532;19.084;2024-02-14T16:00:54;11.35;;;5.60;;
62121;SDS011;48108;47.532;19.084;2024-02-14T16:03:58;7.97;;;5.35;;
62121;SDS011;48108;47.532;19.084;2024-02-14T16:07:01;7.72;;;5.62;;
62121;SDS011;48108;47.532;19.084;2024-02-14T16:10:04;9.70;;;5.68;;
62121;SDS011;48108;47.532;19.084;2024-02-14T16:13:07;11.63;;;6.22;;
62121;SDS011;48108;47.532;19.084;2024-02-14T16:16:10;7.60;;;6.12;;
62121;SDS011;48108;47.532;19.084;2024-02-14T16:19:13;12.13;;;6.05;;
62121;SDS011;48108;47.532;19.084;2024-02-14T16:22:16;10.95;;;6.05;;
62121;SDS011;48108;47.532;19.084;2024-02-14T16:25:20;13.55;;;6.60;;
62121;SDS011;48108;47.532;19.084;2024-02-14T16:28:23;7.90;;;6.10;;
62121;SDS011;48108;47.532;19.084;2024-02-14T16:31:25;10.27;;;5.72;;
62121;SDS011;48108;47.532;19.084;2024-02-14T16:34:29;8.90;;;6.00;;
62121;SDS011;48108;47.532;19.084;2024-02-14T16:37:32;9.35;;;6.45;;
62121;SDS011;48108;47.532;19.084;2024-02-14T16:40:35;16.55;;;6.20;;
62121;SDS011;48108;47.532;19.084;2024-02-14T16:43:37;9.90;;;5.78;;
62121;SDS011;48108;47.532;19.084;2024-02-14T16:46:40;7.68;;;5.60;;
62121;SDS011;48108;47.532;19.084;2024-02-14T16:49:43;10.77;;;6.68;;
62121;SDS011;48108;47.532;19.084;2024-02-14T16:52:46;11.60;;;5.93;;
62121;SDS011;48108;47.532;19.084;2024-02-14T16:55:49;12.80;;;6.25;;
62121;SDS011;48108;47.532;19.084;2024-02-14T16:58:52;10.48;;;5.60;;
62121;SDS011;48108;47.532;19.084;2024-02-14T17:01:55;9.88;;;6.10;;
62121;SDS011;48108;47.532;19.084;2024-02-14T17:04:58;10.52;;;6.65;;
62121;SDS011;48108;47.532;19.084;2024-02-14T17:08:01;12.45;;;6.50;;
